Hauptseite
METAR-TAF:

METAR-TAF

Flughäfen :

Fliegerhorst Nörvenich

Nörvenich, Deutschland

Breite: 50-50N, Länge: 006-40E, Höhe: 118 m

Beobachtung

Neuester Wetterbericht von vor 30 Minuten, um 18:20 UTC
Wind 3 kt aus Süd
Temperatur 28°C
Luftfeuchtigkeit 27%
Luftdruck 1015 hPa
Sichtweite 10 km oder mehr
Leicht bewölkt in der Höhe von 30000 ft

METAR: ETNN 051820Z 18003KT 9999 FEW300 28/07 Q1015 BLU+

Zeit: 20:50 (18:50 UTC)

Prognose

Neuester Wetterbericht von vor 5 Stunden und 39 Minuten, um 13:11 UTC
Gültige Prognose vom 05 um 14 UTC bis 05 um 23 UTC
Wind 7 kt aus Süd
Sichtweite 10 km oder mehr
Himmel klar

TAF: ETNN 051311Z 0514/0523 19007KT 9999 NSW SKC BY ETGL

Wetterbeobachtungen und Prognosen von mehr als 4000 Flughäfen (METAR und TAF Bericht).

Die verfügbaren Stationen werden durch gelbe und rote Markierungen auf der Karte dargestellt.

Führen Sie die Maus auf sie, um den Namen der Station zu sehen.

Darauf klicken, um die Beobachtung von Wetterbeobachtungen und Prognosen zu sehen.

Um die Karte zu ändern : klicken Sie auf den grünen Tasten mit einem schwarzen Kreuz Zum Vergrößern, auf den grünen Button mit einem Gedankenstrich zu verkleinern, oder auf die grünen Pfeile für benachbarte Karten.


METAR-TAF: